createdAt,value
2019-03-01T00:01:42.618Z,14.13
2019-03-01T00:04:14.743Z,14.93
2019-03-01T00:06:52.628Z,15.73
2019-03-01T00:09:42.444Z,15.30
2019-03-01T00:12:41.580Z,17.27
2019-03-01T00:15:43.611Z,16.87
2019-03-01T00:18:21.182Z,20.83
2019-03-01T00:21:07.686Z,18.40
2019-03-01T00:23:39.549Z,12.73
2019-03-01T00:26:14.377Z,18.50
2019-03-01T00:28:47.096Z,20.27
2019-03-01T00:31:21.717Z,15.97
2019-03-01T00:34:05.388Z,15.17
2019-03-01T00:36:53.814Z,16.13
2019-03-01T00:39:37.237Z,19.60
2019-03-01T00:42:26.906Z,13.90
2019-03-01T00:44:55.755Z,15.73
2019-03-01T00:47:24.596Z,16.00
2019-03-01T00:49:53.438Z,15.70
2019-03-01T00:52:22.351Z,13.87
2019-03-01T00:54:51.385Z,14.83
2019-03-01T00:57:20.224Z,15.30
2019-03-01T00:59:49.056Z,17.73
2019-03-01T01:02:17.923Z,18.63
2019-03-01T01:04:46.773Z,16.83
2019-03-01T01:07:15.610Z,14.97
2019-03-01T01:09:44.466Z,14.63
2019-03-01T01:12:13.293Z,14.90
2019-03-01T01:14:42.205Z,18.77
2019-03-01T01:17:11.094Z,16.23
2019-03-01T01:19:39.963Z,16.40
2019-03-01T01:22:08.824Z,12.87
2019-03-01T01:24:37.661Z,16.60
2019-03-01T01:27:06.488Z,17.17
2019-03-01T01:29:35.377Z,18.60
2019-03-01T01:32:04.224Z,18.60
2019-03-01T01:34:33.057Z,20.53
2019-03-01T01:37:01.897Z,21.17
2019-03-01T01:39:30.774Z,20.33
2019-03-01T01:41:59.620Z,26.10
2019-03-01T01:44:28.450Z,20.33
2019-03-01T01:46:57.275Z,25.27
2019-03-01T01:49:26.115Z,16.90
2019-03-01T01:51:54.937Z,16.00
2019-03-01T01:54:23.758Z,19.23
2019-03-01T01:56:52.616Z,22.90
2019-03-01T01:59:21.431Z,21.80
2019-03-01T02:01:51.344Z,16.13
2019-03-01T02:04:20.173Z,17.10
2019-03-01T02:06:49.004Z,17.97
2019-03-01T02:09:21.241Z,18.23
2019-03-01T02:11:50.270Z,18.30
2019-03-01T02:14:19.084Z,18.13
2019-03-01T02:16:47.934Z,16.33
2019-03-01T02:19:16.822Z,15.83
2019-03-01T02:21:45.669Z,20.83
2019-03-01T02:24:14.560Z,22.63
2019-03-01T02:26:43.389Z,16.20
2019-03-01T02:29:12.240Z,23.83
2019-03-01T02:31:44.184Z,18.57
2019-03-01T02:34:13.029Z,18.37
2019-03-01T02:36:41.871Z,19.67
2019-03-01T02:39:10.912Z,22.70
2019-03-01T02:41:39.725Z,16.93
2019-03-01T02:44:08.672Z,14.60
2019-03-01T02:46:37.575Z,15.30
2019-03-01T02:49:06.406Z,15.23
2019-03-01T02:51:35.236Z,19.53
2019-03-01T02:54:04.155Z,16.50
2019-03-01T02:56:32.996Z,13.63
2019-03-01T02:59:01.882Z,17.93
2019-03-01T03:01:30.781Z,13.67
2019-03-01T03:03:59.604Z,18.70
2019-03-01T03:06:39.129Z,15.90
2019-03-01T03:09:08.782Z,15.50
2019-03-01T03:11:37.736Z,13.57
2019-03-01T03:14:06.572Z,20.40
2019-03-01T03:16:35.399Z,13.33
2019-03-01T03:19:04.234Z,19.43
2019-03-01T03:21:33.073Z,18.30
2019-03-01T03:24:01.929Z,16.67
2019-03-01T03:26:30.826Z,17.00
2019-03-01T03:28:59.677Z,18.50
2019-03-01T03:31:28.506Z,12.83
2019-03-01T03:33:57.373Z,16.90
2019-03-01T03:36:26.269Z,17.50
2019-03-01T03:38:55.155Z,15.00
2019-03-01T03:41:23.987Z,16.60
2019-03-01T03:43:52.847Z,16.40
2019-03-01T03:46:21.666Z,19.13
2019-03-01T03:48:50.518Z,23.70
2019-03-01T03:51:19.348Z,25.53
2019-03-01T03:53:48.181Z,16.73
2019-03-01T03:56:17.023Z,22.40
2019-03-01T03:58:46.111Z,18.97
2019-03-01T04:01:14.950Z,20.70
2019-03-01T04:03:43.853Z,25.47
2019-03-01T04:06:12.821Z,19.93
2019-03-01T04:08:41.715Z,19.63
2019-03-01T04:11:10.561Z,21.80
2019-03-01T04:13:39.453Z,19.57
2019-03-01T04:16:08.290Z,19.97
2019-03-01T04:18:37.099Z,20.73
2019-03-01T04:21:05.964Z,14.23
2019-03-01T04:23:34.769Z,21.40
2019-03-01T04:26:03.643Z,15.73
2019-03-01T04:28:32.493Z,23.80
2019-03-01T04:31:02.978Z,19.57
2019-03-01T04:33:31.864Z,21.87
2019-03-01T04:36:00.693Z,17.30
2019-03-01T04:38:29.544Z,20.87
2019-03-01T04:40:58.403Z,15.00
2019-03-01T04:43:27.223Z,15.73
2019-03-01T04:45:56.126Z,16.57
2019-03-01T04:48:24.964Z,18.57
2019-03-01T04:50:53.777Z,17.97
2019-03-01T04:53:22.712Z,17.17
2019-03-01T04:55:51.536Z,14.73
2019-03-01T04:58:20.349Z,16.83
2019-03-01T05:00:49.188Z,17.93
2019-03-01T05:03:18.020Z,17.03
2019-03-01T05:05:46.894Z,12.63
2019-03-01T05:08:15.708Z,14.63
2019-03-01T05:10:44.552Z,12.47
2019-03-01T05:13:13.387Z,14.67
2019-03-01T05:15:42.237Z,13.60
2019-03-01T05:18:11.087Z,32.13
2019-03-01T05:20:39.912Z,29.90
2019-03-01T05:23:08.768Z,20.93
2019-03-01T05:25:37.672Z,17.73
2019-03-01T05:28:06.510Z,18.07
2019-03-01T05:30:35.347Z,17.70
2019-03-01T05:33:04.168Z,17.87
2019-03-01T05:35:33.028Z,18.30
2019-03-01T05:38:01.878Z,15.70
2019-03-01T05:40:30.712Z,13.23
2019-03-01T05:42:59.605Z,20.40
2019-03-01T05:45:32.172Z,15.87
2019-03-01T05:48:00.998Z,15.10
2019-03-01T05:50:29.856Z,15.73
2019-03-01T05:52:58.675Z,16.50
2019-03-01T05:55:27.512Z,17.13
2019-03-01T05:58:22.012Z,18.63
2019-03-01T06:00:52.556Z,16.17
2019-03-01T06:03:42.209Z,20.73
2019-03-01T06:06:29.073Z,19.47
2019-03-01T06:09:27.188Z,22.87
2019-03-01T06:12:27.891Z,16.03
2019-03-01T06:15:31.522Z,24.23
2019-03-01T06:18:19.793Z,24.70
2019-03-01T06:21:03.412Z,19.87
2019-03-01T06:23:38.229Z,22.33
2019-03-01T06:26:31.431Z,25.90
2019-03-01T06:29:14.926Z,19.67
2019-03-01T06:32:01.604Z,21.63
2019-03-01T06:34:39.174Z,24.20
2019-03-01T06:37:27.422Z,19.70
2019-03-01T06:40:12.360Z,21.57
2019-03-01T06:43:01.411Z,19.77
2019-03-01T06:45:51.034Z,22.20
2019-03-01T06:48:21.450Z,20.97
2019-03-01T06:50:51.858Z,24.17
2019-03-01T06:53:20.835Z,22.67
2019-03-01T06:55:49.678Z,22.77
2019-03-01T06:58:20.864Z,30.40
2019-03-01T07:00:51.625Z,23.63
2019-03-01T07:03:20.491Z,24.20
2019-03-01T07:05:49.334Z,30.07
2019-03-01T07:08:18.364Z,22.83
2019-03-01T07:10:47.443Z,23.73
2019-03-01T07:13:16.326Z,28.10
2019-03-01T07:15:45.204Z,22.73
2019-03-01T07:18:14.384Z,20.67
2019-03-01T07:20:43.301Z,18.97
2019-03-01T07:23:12.160Z,19.13
2019-03-01T07:25:42.483Z,26.90
2019-03-01T07:28:13.207Z,24.07
2019-03-01T07:30:42.111Z,19.27
2019-03-01T07:33:10.948Z,21.00
2019-03-01T07:35:39.914Z,23.13
2019-03-01T07:38:08.937Z,18.40
2019-03-01T07:40:37.968Z,22.70
2019-03-01T07:43:07.755Z,21.10
2019-03-01T07:45:39.921Z,21.80
2019-03-01T07:48:08.844Z,22.97
2019-03-01T07:50:37.690Z,22.33
2019-03-01T07:53:06.889Z,21.77
2019-03-01T07:55:35.745Z,24.00
2019-03-01T07:58:04.842Z,27.90
2019-03-01T08:00:33.906Z,22.00
2019-03-01T08:03:02.815Z,23.27
2019-03-01T08:05:32.220Z,25.30
2019-03-01T08:08:03.486Z,26.00
2019-03-01T08:10:31.737Z,23.23
2019-03-01T08:13:00.562Z,21.47
2019-03-01T08:15:29.491Z,20.90
2019-03-01T08:18:00.600Z,20.33
2019-03-01T08:20:30.387Z,22.17
2019-03-01T08:23:00.832Z,23.83
2019-03-01T08:25:30.673Z,21.17
2019-03-01T08:27:59.573Z,26.07
2019-03-01T08:30:28.468Z,23.63
2019-03-01T08:32:57.427Z,31.47
2019-03-01T08:35:28.345Z,19.93
2019-03-01T08:37:56.911Z,24.03
2019-03-01T08:40:25.979Z,23.23
2019-03-01T08:42:54.907Z,21.33
2019-03-01T08:45:23.981Z,47.33
2019-03-01T08:47:55.414Z,26.40
2019-03-01T08:50:23.409Z,22.60
2019-03-01T08:52:52.360Z,24.57
2019-03-01T08:55:30.077Z,23.80
2019-03-01T08:58:02.857Z,24.50
2019-03-01T09:00:41.586Z,21.70
2019-03-01T09:03:22.984Z,28.93
2019-03-01T09:05:52.125Z,25.27
2019-03-01T09:08:21.433Z,24.67
2019-03-01T09:10:50.902Z,22.70
2019-03-01T09:13:19.776Z,21.50
2019-03-01T09:15:49.463Z,23.83
2019-03-01T09:18:19.468Z,26.67
2019-03-01T09:20:48.364Z,22.37
2019-03-01T09:23:24.353Z,22.03
2019-03-01T09:25:49.787Z,22.77
2019-03-01T09:28:18.915Z,24.23
2019-03-01T09:30:47.853Z,21.07
2019-03-01T09:33:17.279Z,21.17
2019-03-01T09:35:52.322Z,21.63
2019-03-01T09:38:21.363Z,21.10
2019-03-01T09:40:50.433Z,22.47
2019-03-01T09:43:19.400Z,20.53
2019-03-01T09:45:48.859Z,23.33
2019-03-01T09:48:19.201Z,24.77
2019-03-01T09:50:48.169Z,21.23
2019-03-01T09:53:17.166Z,23.73
2019-03-01T09:55:46.171Z,20.07
2019-03-01T09:58:15.149Z,21.33
2019-03-01T10:00:56.158Z,21.83
2019-03-01T10:03:23.523Z,16.20
2019-03-01T10:05:52.390Z,21.40
2019-03-01T10:08:22.878Z,24.33
2019-03-01T10:10:51.777Z,18.57
2019-03-01T10:13:20.612Z,18.53
2019-03-01T10:15:49.323Z,32.20
2019-03-01T10:18:18.115Z,17.80
2019-03-01T10:20:46.860Z,21.13
2019-03-01T10:23:15.571Z,17.60
2019-03-01T10:25:44.286Z,18.73
2019-03-01T10:28:13.120Z,21.87
2019-03-01T10:30:41.858Z,20.50
2019-03-01T10:33:10.654Z,23.80
2019-03-01T10:35:39.358Z,25.07
2019-03-01T10:38:08.134Z,22.47
2019-03-01T10:40:37.052Z,24.43
2019-03-01T10:43:05.825Z,21.70
2019-03-01T10:45:34.584Z,22.10
2019-03-01T10:48:04.735Z,22.20
2019-03-01T10:50:33.439Z,23.13
2019-03-01T10:53:04.670Z,19.60
2019-03-01T10:55:33.473Z,20.00
2019-03-01T10:58:02.163Z,20.90
2019-03-01T11:00:32.420Z,21.30
2019-03-01T11:03:01.125Z,26.83
2019-03-01T11:05:30.020Z,28.60
2019-03-01T11:07:58.826Z,34.87
2019-03-01T11:10:32.773Z,37.30
2019-03-01T11:13:01.660Z,21.53
2019-03-01T11:15:30.607Z,21.73
2019-03-01T11:17:59.410Z,23.77
2019-03-01T11:20:28.366Z,25.10
2019-03-01T11:22:58.570Z,22.07
2019-03-01T11:25:27.331Z,22.73
2019-03-01T11:27:56.321Z,24.37
2019-03-01T11:30:36.056Z,22.77
2019-03-01T11:33:05.026Z,24.65
2019-03-01T11:35:33.719Z,20.82
2019-03-01T11:38:02.393Z,21.93
2019-03-01T11:40:36.069Z,22.82
2019-03-01T11:43:05.502Z,21.15
2019-03-01T11:45:34.406Z,25.72
2019-03-01T11:48:03.788Z,19.50
2019-03-01T11:50:32.531Z,21.57
2019-03-01T11:53:01.263Z,24.02
2019-03-01T11:55:30.061Z,24.30
2019-03-01T11:57:58.754Z,20.85
2019-03-01T12:00:28.851Z,17.65
2019-03-01T12:02:57.542Z,25.80
2019-03-01T12:05:26.227Z,27.75
2019-03-01T12:07:54.962Z,21.37
2019-03-01T12:10:31.497Z,24.00
2019-03-01T12:13:00.411Z,19.63
2019-03-01T12:15:29.266Z,21.67
2019-03-01T12:17:57.993Z,21.67
2019-03-01T12:20:29.336Z,20.15
2019-03-01T12:22:58.760Z,29.48
2019-03-01T12:25:28.231Z,20.23
2019-03-01T12:27:56.896Z,18.73
2019-03-01T12:30:26.680Z,19.62
2019-03-01T12:32:55.428Z,18.87
2019-03-01T12:35:24.218Z,19.13
2019-03-01T12:37:53.079Z,15.97
2019-03-01T12:40:29.110Z,18.37
2019-03-01T12:42:57.769Z,16.83
2019-03-01T12:45:26.533Z,20.85
2019-03-01T12:47:55.237Z,15.48
2019-03-01T12:50:24.053Z,19.45
2019-03-01T12:52:52.833Z,19.60
2019-03-01T12:55:31.313Z,17.62
2019-03-01T12:58:00.043Z,19.30
2019-03-01T13:00:31.707Z,16.95
2019-03-01T13:03:00.452Z,18.73
2019-03-01T13:05:30.354Z,20.43
2019-03-01T13:07:59.425Z,21.10
2019-03-01T13:10:36.790Z,17.53
2019-03-01T13:13:08.140Z,19.13
2019-03-01T13:15:35.026Z,18.20
2019-03-01T13:18:04.950Z,19.23
2019-03-01T13:20:36.945Z,16.70
2019-03-01T13:23:05.793Z,15.53
2019-03-01T13:25:34.809Z,16.83
2019-03-01T13:28:03.484Z,19.07
2019-03-01T13:30:35.708Z,16.63
2019-03-01T13:33:05.377Z,17.23
2019-03-01T13:35:37.970Z,16.03
2019-03-01T13:38:06.649Z,16.40
2019-03-01T13:40:35.375Z,24.77
2019-03-01T13:43:10.046Z,19.40
2019-03-01T13:45:40.378Z,16.85
2019-03-01T13:48:09.089Z,23.12
2019-03-01T13:50:38.343Z,14.10
2019-03-01T13:53:08.379Z,14.53
2019-03-01T13:55:37.263Z,15.63
2019-03-01T13:58:06.169Z,15.87
2019-03-01T14:00:35.362Z,14.70
2019-03-01T14:03:04.534Z,12.63
2019-03-01T14:05:33.258Z,19.87
2019-03-01T14:08:08.663Z,13.05
2019-03-01T14:10:32.437Z,16.17
2019-03-01T14:13:01.130Z,19.13
2019-03-01T14:15:30.111Z,20.53
2019-03-01T14:18:01.286Z,14.17
2019-03-01T14:20:29.398Z,12.93
2019-03-01T14:22:58.128Z,15.50
2019-03-01T14:25:26.829Z,13.23
2019-03-01T14:27:55.500Z,12.90
2019-03-01T14:30:30.257Z,18.17
2019-03-01T14:32:58.810Z,12.93
2019-03-01T14:35:27.794Z,19.43
2019-03-01T14:37:56.473Z,15.90
2019-03-01T14:40:25.164Z,15.17
2019-03-01T14:42:53.873Z,13.43
2019-03-01T14:45:31.207Z,15.17
2019-03-01T14:48:01.137Z,17.73
2019-03-01T14:50:33.809Z,17.17
2019-03-01T14:53:01.802Z,16.20
2019-03-01T14:55:37.031Z,14.70
2019-03-01T14:58:08.635Z,18.43
2019-03-01T15:00:49.626Z,12.70
2019-03-01T15:03:17.361Z,16.77
2019-03-01T15:05:46.658Z,19.47
2019-03-01T15:08:15.363Z,19.77
2019-03-01T15:10:44.351Z,24.73
2019-03-01T15:13:13.246Z,23.57
2019-03-01T15:15:42.070Z,19.47
2019-03-01T15:18:13.907Z,28.60
2019-03-01T15:20:42.615Z,18.50
2019-03-01T15:23:11.373Z,20.50
2019-03-01T15:25:40.042Z,20.97
2019-03-01T15:28:08.851Z,20.40
2019-03-01T15:30:37.556Z,25.23
2019-03-01T15:33:08.519Z,22.50
2019-03-01T15:35:39.776Z,24.67
2019-03-01T15:38:07.110Z,25.57
2019-03-01T15:40:35.894Z,26.03
2019-03-01T15:43:04.564Z,24.83
2019-03-01T15:45:33.426Z,21.60
2019-03-01T15:48:03.112Z,24.47
2019-03-01T15:50:32.684Z,23.87
2019-03-01T15:53:01.379Z,21.17
2019-03-01T15:55:30.039Z,25.57
2019-03-01T15:57:58.730Z,28.23
2019-03-01T16:00:29.432Z,23.77
2019-03-01T16:02:57.954Z,20.37
2019-03-01T16:05:27.084Z,23.83
2019-03-01T16:07:55.768Z,27.93
2019-03-01T16:10:24.463Z,26.57
2019-03-01T16:12:53.119Z,26.30
2019-03-01T16:15:21.823Z,26.53
2019-03-01T16:17:50.556Z,26.20
2019-03-01T16:20:20.443Z,29.70
2019-03-01T16:22:51.106Z,28.50
2019-03-01T16:25:21.567Z,30.03
2019-03-01T16:27:50.775Z,31.97
2019-03-01T16:30:21.810Z,39.60
2019-03-01T16:32:50.830Z,45.67
2019-03-01T16:35:22.882Z,35.83
2019-03-01T16:37:57.982Z,31.87
2019-03-01T16:40:26.637Z,45.03
2019-03-01T16:42:55.325Z,37.80
2019-03-01T16:45:24.101Z,39.20
2019-03-01T16:47:52.777Z,33.73
2019-03-01T16:50:21.696Z,37.70
2019-03-01T16:52:50.396Z,28.33
2019-03-01T16:55:24.421Z,28.13
2019-03-01T16:57:52.345Z,29.63
2019-03-01T17:00:23.649Z,33.80
2019-03-01T17:03:06.703Z,28.07
2019-03-01T17:05:35.671Z,27.23
2019-03-01T17:08:06.146Z,28.87
2019-03-01T17:10:35.051Z,25.77
2019-03-01T17:13:03.721Z,32.57
2019-03-01T17:15:32.404Z,37.00
2019-03-01T17:18:01.100Z,38.87
2019-03-01T17:20:30.085Z,51.07
2019-03-01T17:22:59.797Z,34.77
2019-03-01T17:25:29.146Z,26.67
2019-03-01T17:27:57.825Z,27.93
2019-03-01T17:30:29.330Z,24.83
2019-03-01T17:32:58.011Z,31.03
2019-03-01T17:35:26.693Z,32.97
2019-03-01T17:37:55.384Z,31.30
2019-03-01T17:40:24.079Z,32.13
2019-03-01T17:42:53.172Z,31.23
2019-03-01T17:45:26.779Z,26.63
2019-03-01T17:47:55.617Z,27.47
2019-03-01T17:50:24.346Z,30.43
2019-03-01T17:52:53.008Z,28.37
2019-03-01T17:55:30.517Z,26.17
2019-03-01T17:57:59.180Z,31.93
2019-03-01T18:00:40.044Z,33.97
2019-03-01T18:03:08.720Z,33.60
2019-03-01T18:05:40.603Z,33.80
2019-03-01T18:08:07.854Z,35.03
2019-03-01T18:10:36.503Z,27.93
2019-03-01T18:13:05.219Z,34.03
2019-03-01T18:15:33.889Z,35.20
2019-03-01T18:18:02.563Z,35.17
2019-03-01T18:20:33.868Z,32.93
2019-03-01T18:23:02.201Z,36.37
2019-03-01T18:25:32.137Z,32.30
2019-03-01T18:28:00.846Z,29.63
2019-03-01T18:30:31.697Z,33.53
2019-03-01T18:33:00.353Z,32.10
2019-03-01T18:35:29.031Z,34.47
2019-03-01T18:37:57.708Z,35.23
2019-03-01T18:40:26.377Z,32.53
2019-03-01T18:42:55.061Z,39.13
2019-03-01T18:45:25.333Z,30.97
2019-03-01T18:47:54.023Z,30.43
2019-03-01T18:50:27.610Z,35.40
2019-03-01T18:52:56.118Z,34.50
2019-03-01T18:55:24.815Z,38.27
2019-03-01T18:57:53.536Z,35.53
2019-03-01T19:00:32.521Z,37.67
2019-03-01T19:03:04.360Z,46.23
2019-03-01T19:05:31.990Z,50.97
2019-03-01T19:08:04.388Z,40.93
2019-03-01T19:10:31.496Z,46.90
2019-03-01T19:13:00.159Z,33.90
2019-03-01T19:15:28.840Z,33.13
2019-03-01T19:17:57.817Z,54.23
2019-03-01T19:20:44.241Z,79.70
2019-03-01T19:23:13.016Z,80.70
2019-03-01T19:25:41.823Z,79.30
2019-03-01T19:28:10.472Z,76.13
2019-03-01T19:30:39.140Z,57.97
2019-03-01T19:33:07.831Z,65.10
2019-03-01T19:35:36.533Z,78.43
2019-03-01T19:38:05.200Z,71.33
2019-03-01T19:40:33.867Z,63.10
2019-03-01T19:43:02.572Z,54.67
2019-03-01T19:45:31.238Z,56.13
2019-03-01T19:48:03.205Z,42.73
2019-03-01T19:50:30.870Z,36.73
2019-03-01T19:52:59.555Z,28.33
2019-03-01T19:55:28.233Z,30.57
2019-03-01T19:57:56.916Z,27.20
2019-03-01T20:00:33.336Z,32.50
2019-03-01T20:03:02.056Z,35.27
2019-03-01T20:05:36.263Z,32.77
2019-03-01T20:08:04.933Z,32.07
2019-03-01T20:10:33.610Z,23.57
2019-03-01T20:13:02.332Z,26.60
2019-03-01T20:15:31.596Z,27.50
2019-03-01T20:18:00.280Z,25.03
2019-03-01T20:20:33.121Z,24.83
2019-03-01T20:23:00.572Z,24.93
2019-03-01T20:25:29.258Z,23.23
2019-03-01T20:27:57.937Z,23.90
2019-03-01T20:30:30.556Z,35.37
2019-03-01T20:32:59.432Z,24.53
2019-03-01T20:35:28.264Z,25.30
2019-03-01T20:38:00.381Z,20.37
2019-03-01T20:40:28.257Z,19.60
2019-03-01T20:43:00.470Z,20.33
2019-03-01T20:45:31.445Z,21.07
2019-03-01T20:48:00.291Z,20.13
2019-03-01T20:50:28.978Z,19.50
2019-03-01T20:52:57.748Z,20.37
2019-03-01T20:55:26.427Z,20.07
2019-03-01T20:57:55.201Z,21.80
2019-03-01T21:00:29.781Z,22.70
2019-03-01T21:02:58.409Z,18.83
2019-03-01T21:05:28.969Z,17.57
2019-03-01T21:07:57.492Z,21.20
2019-03-01T21:10:30.423Z,20.40
2019-03-01T21:12:59.093Z,19.83
2019-03-01T21:15:27.774Z,20.37
2019-03-01T21:17:58.428Z,22.13
2019-03-01T21:20:26.934Z,25.20
2019-03-01T21:22:55.593Z,20.63
2019-03-01T21:25:25.062Z,19.37
2019-03-01T21:27:53.775Z,20.47
2019-03-01T21:30:27.054Z,20.63
2019-03-01T21:32:55.854Z,24.83
2019-03-01T21:35:24.977Z,23.10
2019-03-01T21:37:53.713Z,29.13
2019-03-01T21:40:22.527Z,29.20
2019-03-01T21:42:52.910Z,32.57
2019-03-01T21:45:22.727Z,33.27
2019-03-01T21:47:51.387Z,35.30
2019-03-01T21:50:20.067Z,34.53
2019-03-01T21:52:48.740Z,32.77
2019-03-01T21:55:18.909Z,24.60
2019-03-01T21:57:47.596Z,24.67
2019-03-01T22:00:18.576Z,32.83
2019-03-01T22:02:48.912Z,35.13
2019-03-01T22:05:17.778Z,35.17
2019-03-01T22:07:46.446Z,37.77
2019-03-01T22:10:15.817Z,43.70
2019-03-01T22:12:44.474Z,37.90
2019-03-01T22:15:21.660Z,33.27
2019-03-01T22:17:49.589Z,30.67
2019-03-01T22:20:18.457Z,32.30
2019-03-01T22:22:47.123Z,27.03
2019-03-01T22:25:16.094Z,29.17
2019-03-01T22:27:44.869Z,27.57
2019-03-01T22:30:16.207Z,28.70
2019-03-01T22:32:45.419Z,27.97
2019-03-01T22:35:14.947Z,31.87
2019-03-01T22:37:43.626Z,28.43
2019-03-01T22:40:12.497Z,28.80
2019-03-01T22:42:41.170Z,28.83
2019-03-01T22:45:14.927Z,25.17
2019-03-01T22:47:43.691Z,29.93
2019-03-01T22:50:14.625Z,32.93
2019-03-01T22:52:43.396Z,33.90
2019-03-01T22:55:14.967Z,31.60
2019-03-01T22:57:44.877Z,29.07
2019-03-01T23:00:30.373Z,26.77
2019-03-01T23:02:59.033Z,29.30
2019-03-01T23:05:27.697Z,42.10
2019-03-01T23:07:56.752Z,33.63
2019-03-01T23:10:26.862Z,35.23
2019-03-01T23:12:55.524Z,28.33
2019-03-01T23:15:24.186Z,26.13
2019-03-01T23:17:52.911Z,28.50
2019-03-01T23:20:26.252Z,29.83
2019-03-01T23:22:52.113Z,27.13
2019-03-01T23:25:20.785Z,28.27
2019-03-01T23:27:49.477Z,27.80
2019-03-01T23:30:18.323Z,28.57
2019-03-01T23:32:48.757Z,25.30
2019-03-01T23:35:18.131Z,24.83
2019-03-01T23:37:47.652Z,24.63
2019-03-01T23:40:16.609Z,26.77
2019-03-01T23:42:45.274Z,27.13
2019-03-01T23:45:17.446Z,24.07
2019-03-01T23:47:44.415Z,23.23
2019-03-01T23:50:13.096Z,18.20
2019-03-01T23:52:41.771Z,21.33
2019-03-01T23:55:10.441Z,24.00
2019-03-01T23:57:41.154Z,24.13
